sensor_id;sensor_type;location;lat;lon;timestamp;temperature;humidity
31133;DHT22;17779;50.942;4.026;2023-11-19T00:01:58;14.10;99.90
31133;DHT22;17779;50.942;4.026;2023-11-19T00:04:25;14.00;99.90
31133;DHT22;17779;50.942;4.026;2023-11-19T00:06:52;14.10;99.90
31133;DHT22;17779;50.942;4.026;2023-11-19T00:09:17;14.00;99.90
31133;DHT22;17779;50.942;4.026;2023-11-19T00:11:46;14.00;99.90
31133;DHT22;17779;50.942;4.026;2023-11-19T00:14:12;14.00;99.90
31133;DHT22;17779;50.942;4.026;2023-11-19T00:16:43;14.00;99.90
31133;DHT22;17779;50.942;4.026;2023-11-19T00:19:08;14.00;99.90
31133;DHT22;17779;50.942;4.026;2023-11-19T00:21:34;14.10;99.90
31133;DHT22;17779;50.942;4.026;2023-11-19T00:24:00;14.10;99.90
31133;DHT22;17779;50.942;4.026;2023-11-19T00:28:56;14.20;99.90
31133;DHT22;17779;50.942;4.026;2023-11-19T00:33:54;14.10;99.90
31133;DHT22;17779;50.942;4.026;2023-11-19T00:36:19;14.00;99.90
31133;DHT22;17779;50.942;4.026;2023-11-19T00:38:45;13.90;99.90
31133;DHT22;17779;50.942;4.026;2023-11-19T00:41:11;13.90;99.90
31133;DHT22;17779;50.942;4.026;2023-11-19T00:43:37;14.00;99.90
31133;DHT22;17779;50.942;4.026;2023-11-19T00:46:06;13.90;99.90
31133;DHT22;17779;50.942;4.026;2023-11-19T00:48:32;13.90;99.90
31133;DHT22;17779;50.942;4.026;2023-11-19T00:50:57;13.90;99.90
31133;DHT22;17779;50.942;4.026;2023-11-19T00:53:23;13.90;99.90
31133;DHT22;17779;50.942;4.026;2023-11-19T00:55:49;13.90;99.90
31133;DHT22;17779;50.942;4.026;2023-11-19T00:58:15;13.90;99.90
31133;DHT22;17779;50.942;4.026;2023-11-19T01:00:43;13.80;99.90
31133;DHT22;17779;50.942;4.026;2023-11-19T01:03:09;13.80;99.90
31133;DHT22;17779;50.942;4.026;2023-11-19T01:05:37;13.80;99.90
31133;DHT22;17779;50.942;4.026;2023-11-19T01:08:03;13.80;99.90
31133;DHT22;17779;50.942;4.026;2023-11-19T01:10:30;13.90;99.90
31133;DHT22;17779;50.942;4.026;2023-11-19T01:12:57;13.90;99.90
31133;DHT22;17779;50.942;4.026;2023-11-19T01:15:23;13.90;99.90
31133;DHT22;17779;50.942;4.026;2023-11-19T01:17:48;13.90;99.90
31133;DHT22;17779;50.942;4.026;2023-11-19T01:20:17;13.90;99.90
31133;DHT22;17779;50.942;4.026;2023-11-19T01:22:43;13.80;99.90
31133;DHT22;17779;50.942;4.026;2023-11-19T01:25:08;13.80;99.90
31133;DHT22;17779;50.942;4.026;2023-11-19T01:27:35;13.60;99.90
31133;DHT22;17779;50.942;4.026;2023-11-19T01:30:02;13.60;99.90
31133;DHT22;17779;50.942;4.026;2023-11-19T01:32:29;13.60;99.90
31133;DHT22;17779;50.942;4.026;2023-11-19T01:34:54;13.60;99.90
31133;DHT22;17779;50.942;4.026;2023-11-19T01:37:23;13.70;99.90
31133;DHT22;17779;50.942;4.026;2023-11-19T01:39:50;13.80;99.90
31133;DHT22;17779;50.942;4.026;2023-11-19T01:42:15;13.80;99.90
31133;DHT22;17779;50.942;4.026;2023-11-19T01:44:41;13.80;99.90
31133;DHT22;17779;50.942;4.026;2023-11-19T01:47:09;13.80;99.90
31133;DHT22;17779;50.942;4.026;2023-11-19T01:49:37;13.90;99.90
31133;DHT22;17779;50.942;4.026;2023-11-19T01:52:06;13.80;99.90
31133;DHT22;17779;50.942;4.026;2023-11-19T01:54:32;13.70;99.90
31133;DHT22;17779;50.942;4.026;2023-11-19T01:57:01;13.60;99.90
31133;DHT22;17779;50.942;4.026;2023-11-19T02:01:56;13.60;99.90
31133;DHT22;17779;50.942;4.026;2023-11-19T02:04:22;13.60;99.90
31133;DHT22;17779;50.942;4.026;2023-11-19T02:06:51;13.60;99.90
31133;DHT22;17779;50.942;4.026;2023-11-19T02:09:23;13.60;99.90
31133;DHT22;17779;50.942;4.026;2023-11-19T02:11:49;13.50;99.90
31133;DHT22;17779;50.942;4.026;2023-11-19T02:14:16;13.60;99.90
31133;DHT22;17779;50.942;4.026;2023-11-19T02:16:42;13.60;99.90
31133;DHT22;17779;50.942;4.026;2023-11-19T02:19:08;13.50;99.90
31133;DHT22;17779;50.942;4.026;2023-11-19T02:21:35;13.50;99.90
31133;DHT22;17779;50.942;4.026;2023-11-19T02:24:03;13.60;99.90
31133;DHT22;17779;50.942;4.026;2023-11-19T02:29:00;13.70;99.90
31133;DHT22;17779;50.942;4.026;2023-11-19T02:31:27;13.70;99.90
31133;DHT22;17779;50.942;4.026;2023-11-19T02:33:53;13.70;99.90
31133;DHT22;17779;50.942;4.026;2023-11-19T02:36:20;13.70;99.90
31133;DHT22;17779;50.942;4.026;2023-11-19T02:38:47;13.60;99.90
31133;DHT22;17779;50.942;4.026;2023-11-19T02:41:13;13.40;99.90
31133;DHT22;17779;50.942;4.026;2023-11-19T02:43:39;13.40;99.90
31133;DHT22;17779;50.942;4.026;2023-11-19T02:46:05;13.30;99.90
31133;DHT22;17779;50.942;4.026;2023-11-19T02:48:34;13.20;99.90
31133;DHT22;17779;50.942;4.026;2023-11-19T02:51:04;13.20;99.90
31133;DHT22;17779;50.942;4.026;2023-11-19T02:53:32;13.20;99.90
31133;DHT22;17779;50.942;4.026;2023-11-19T02:55:58;13.10;99.90
31133;DHT22;17779;50.942;4.026;2023-11-19T03:01:00;13.00;99.90
31133;DHT22;17779;50.942;4.026;2023-11-19T03:03:36;12.90;99.90
31133;DHT22;17779;50.942;4.026;2023-11-19T03:06:06;12.90;99.90
31133;DHT22;17779;50.942;4.026;2023-11-19T03:08:34;12.80;99.90
31133;DHT22;17779;50.942;4.026;2023-11-19T03:11:01;12.80;99.90
31133;DHT22;17779;50.942;4.026;2023-11-19T03:13:28;12.90;99.90
31133;DHT22;17779;50.942;4.026;2023-11-19T03:15:54;12.90;99.90
31133;DHT22;17779;50.942;4.026;2023-11-19T03:20:49;12.80;99.90
31133;DHT22;17779;50.942;4.026;2023-11-19T03:25:44;12.80;99.90
31133;DHT22;17779;50.942;4.026;2023-11-19T03:28:10;12.80;99.90
31133;DHT22;17779;50.942;4.026;2023-11-19T03:30:38;12.80;99.90
31133;DHT22;17779;50.942;4.026;2023-11-19T03:33:08;12.70;99.90
31133;DHT22;17779;50.942;4.026;2023-11-19T03:35:33;12.70;99.90
31133;DHT22;17779;50.942;4.026;2023-11-19T03:38:00;12.70;99.90
31133;DHT22;17779;50.942;4.026;2023-11-19T03:40:26;12.60;99.90
31133;DHT22;17779;50.942;4.026;2023-11-19T03:42:58;12.60;99.90
31133;DHT22;17779;50.942;4.026;2023-11-19T03:45:24;12.50;99.90
31133;DHT22;17779;50.942;4.026;2023-11-19T03:47:51;12.50;99.90
31133;DHT22;17779;50.942;4.026;2023-11-19T03:50:19;12.60;99.90
31133;DHT22;17779;50.942;4.026;2023-11-19T03:52:49;12.50;99.90
31133;DHT22;17779;50.942;4.026;2023-11-19T03:55:14;12.60;99.90
31133;DHT22;17779;50.942;4.026;2023-11-19T03:57:40;12.60;99.90
31133;DHT22;17779;50.942;4.026;2023-11-19T04:02:35;12.90;99.90
31133;DHT22;17779;50.942;4.026;2023-11-19T04:05:01;13.00;99.90
31133;DHT22;17779;50.942;4.026;2023-11-19T04:07:29;12.90;99.90
31133;DHT22;17779;50.942;4.026;2023-11-19T04:09:54;12.80;99.90
31133;DHT22;17779;50.942;4.026;2023-11-19T04:12:20;12.80;99.90
31133;DHT22;17779;50.942;4.026;2023-11-19T04:17:15;12.80;99.90
31133;DHT22;17779;50.942;4.026;2023-11-19T04:19:44;12.80;99.90
31133;DHT22;17779;50.942;4.026;2023-11-19T04:22:10;12.80;99.90
31133;DHT22;17779;50.942;4.026;2023-11-19T04:24:36;12.70;99.90
31133;DHT22;17779;50.942;4.026;2023-11-19T04:27:03;12.70;99.90
31133;DHT22;17779;50.942;4.026;2023-11-19T04:29:31;12.70;99.90
31133;DHT22;17779;50.942;4.026;2023-11-19T04:31:58;12.70;99.90
31133;DHT22;17779;50.942;4.026;2023-11-19T04:34:25;12.70;99.90
31133;DHT22;17779;50.942;4.026;2023-11-19T04:36:54;12.70;99.90
31133;DHT22;17779;50.942;4.026;2023-11-19T04:39:20;12.70;99.90
31133;DHT22;17779;50.942;4.026;2023-11-19T04:41:48;12.60;99.90
31133;DHT22;17779;50.942;4.026;2023-11-19T04:44:16;12.60;99.90
31133;DHT22;17779;50.942;4.026;2023-11-19T04:46:45;12.70;99.90
31133;DHT22;17779;50.942;4.026;2023-11-19T04:49:11;12.70;99.90
31133;DHT22;17779;50.942;4.026;2023-11-19T04:51:44;12.60;99.90
31133;DHT22;17779;50.942;4.026;2023-11-19T04:54:09;12.50;99.90
31133;DHT22;17779;50.942;4.026;2023-11-19T04:56:35;12.40;99.90
31133;DHT22;17779;50.942;4.026;2023-11-19T04:59:04;12.30;99.90
31133;DHT22;17779;50.942;4.026;2023-11-19T05:01:34;12.30;99.90
31133;DHT22;17779;50.942;4.026;2023-11-19T05:04:02;12.30;99.90
31133;DHT22;17779;50.942;4.026;2023-11-19T05:06:31;12.20;99.90
31133;DHT22;17779;50.942;4.026;2023-11-19T05:09:02;12.20;99.90
31133;DHT22;17779;50.942;4.026;2023-11-19T05:11:33;12.20;99.90
31133;DHT22;17779;50.942;4.026;2023-11-19T05:14:03;12.20;99.90
31133;DHT22;17779;50.942;4.026;2023-11-19T05:16:32;12.30;99.90
31133;DHT22;17779;50.942;4.026;2023-11-19T05:19:01;12.20;99.90
31133;DHT22;17779;50.942;4.026;2023-11-19T05:21:26;12.20;99.90
31133;DHT22;17779;50.942;4.026;2023-11-19T05:23:52;12.20;99.90
31133;DHT22;17779;50.942;4.026;2023-11-19T05:26:18;12.10;99.90
31133;DHT22;17779;50.942;4.026;2023-11-19T05:28:48;12.10;99.90
31133;DHT22;17779;50.942;4.026;2023-11-19T05:31:13;12.00;99.90
31133;DHT22;17779;50.942;4.026;2023-11-19T05:33:39;12.00;99.90
31133;DHT22;17779;50.942;4.026;2023-11-19T05:36:07;11.90;99.90
31133;DHT22;17779;50.942;4.026;2023-11-19T05:38:34;11.90;99.90
31133;DHT22;17779;50.942;4.026;2023-11-19T05:40:59;12.00;99.90
31133;DHT22;17779;50.942;4.026;2023-11-19T05:43:25;12.00;99.90
31133;DHT22;17779;50.942;4.026;2023-11-19T05:45:54;11.90;99.90
31133;DHT22;17779;50.942;4.026;2023-11-19T05:48:21;11.90;99.90
31133;DHT22;17779;50.942;4.026;2023-11-19T05:50:47;11.90;99.90
31133;DHT22;17779;50.942;4.026;2023-11-19T05:53:17;11.90;99.90
31133;DHT22;17779;50.942;4.026;2023-11-19T05:55:45;11.90;99.90
31133;DHT22;17779;50.942;4.026;2023-11-19T05:58:22;11.80;99.90
31133;DHT22;17779;50.942;4.026;2023-11-19T06:00:54;11.80;99.90
31133;DHT22;17779;50.942;4.026;2023-11-19T06:03:23;11.80;99.90
31133;DHT22;17779;50.942;4.026;2023-11-19T06:08:20;11.70;99.90
31133;DHT22;17779;50.942;4.026;2023-11-19T06:10:49;11.70;99.90
31133;DHT22;17779;50.942;4.026;2023-11-19T06:13:19;11.70;99.90
31133;DHT22;17779;50.942;4.026;2023-11-19T06:15:47;11.70;99.90
31133;DHT22;17779;50.942;4.026;2023-11-19T06:18:14;11.70;99.90
31133;DHT22;17779;50.942;4.026;2023-11-19T06:20:40;11.70;99.90
31133;DHT22;17779;50.942;4.026;2023-11-19T06:23:08;11.70;99.90
31133;DHT22;17779;50.942;4.026;2023-11-19T06:28:02;11.70;99.90
31133;DHT22;17779;50.942;4.026;2023-11-19T06:30:30;11.80;99.90
31133;DHT22;17779;50.942;4.026;2023-11-19T06:33:01;11.80;99.90
31133;DHT22;17779;50.942;4.026;2023-11-19T06:35:27;11.80;99.90
31133;DHT22;17779;50.942;4.026;2023-11-19T06:38:02;11.80;99.90
31133;DHT22;17779;50.942;4.026;2023-11-19T06:40:29;11.80;99.90
31133;DHT22;17779;50.942;4.026;2023-11-19T06:42:56;11.70;99.90
31133;DHT22;17779;50.942;4.026;2023-11-19T06:47:50;11.70;99.90
31133;DHT22;17779;50.942;4.026;2023-11-19T06:50:17;11.70;99.90
31133;DHT22;17779;50.942;4.026;2023-11-19T06:52:44;11.70;99.90
31133;DHT22;17779;50.942;4.026;2023-11-19T06:55:10;11.70;99.90
31133;DHT22;17779;50.942;4.026;2023-11-19T06:57:38;11.70;99.90
31133;DHT22;17779;50.942;4.026;2023-11-19T07:00:05;11.60;99.90
31133;DHT22;17779;50.942;4.026;2023-11-19T07:02:33;11.60;99.90
31133;DHT22;17779;50.942;4.026;2023-11-19T07:04:58;11.60;99.90
31133;DHT22;17779;50.942;4.026;2023-11-19T07:07:25;11.60;99.90
31133;DHT22;17779;50.942;4.026;2023-11-19T07:12:21;11.60;99.90
31133;DHT22;17779;50.942;4.026;2023-11-19T07:14:47;11.70;99.90
31133;DHT22;17779;50.942;4.026;2023-11-19T07:17:12;11.80;99.90
31133;DHT22;17779;50.942;4.026;2023-11-19T07:19:40;11.80;99.90
31133;DHT22;17779;50.942;4.026;2023-11-19T07:22:06;11.90;99.90
31133;DHT22;17779;50.942;4.026;2023-11-19T07:24:32;11.90;99.90
31133;DHT22;17779;50.942;4.026;2023-11-19T07:26:58;11.90;99.90
31133;DHT22;17779;50.942;4.026;2023-11-19T07:29:23;11.90;99.90
31133;DHT22;17779;50.942;4.026;2023-11-19T07:31:52;12.00;99.90
31133;DHT22;17779;50.942;4.026;2023-11-19T07:36:46;12.00;99.90
31133;DHT22;17779;50.942;4.026;2023-11-19T07:39:14;12.00;99.90
31133;DHT22;17779;50.942;4.026;2023-11-19T07:41:40;12.00;99.90
31133;DHT22;17779;50.942;4.026;2023-11-19T07:44:09;12.10;99.90
31133;DHT22;17779;50.942;4.026;2023-11-19T07:46:35;12.30;99.90
31133;DHT22;17779;50.942;4.026;2023-11-19T07:49:01;12.30;99.90
31133;DHT22;17779;50.942;4.026;2023-11-19T07:51:28;12.40;99.90
31133;DHT22;17779;50.942;4.026;2023-11-19T07:53:53;12.50;99.90
31133;DHT22;17779;50.942;4.026;2023-11-19T07:56:22;12.60;99.90
31133;DHT22;17779;50.942;4.026;2023-11-19T07:58:47;12.50;99.90
31133;DHT22;17779;50.942;4.026;2023-11-19T08:01:16;12.60;99.90
31133;DHT22;17779;50.942;4.026;2023-11-19T08:03:42;12.70;99.90
31133;DHT22;17779;50.942;4.026;2023-11-19T08:06:08;12.80;99.90
31133;DHT22;17779;50.942;4.026;2023-11-19T08:08:37;12.80;99.90
31133;DHT22;17779;50.942;4.026;2023-11-19T08:11:04;12.80;99.90
31133;DHT22;17779;50.942;4.026;2023-11-19T08:13:33;12.80;99.90
31133;DHT22;17779;50.942;4.026;2023-11-19T08:16:01;13.00;99.90
31133;DHT22;17779;50.942;4.026;2023-11-19T08:18:30;13.10;99.90
31133;DHT22;17779;50.942;4.026;2023-11-19T08:20:57;12.90;99.90
31133;DHT22;17779;50.942;4.026;2023-11-19T08:23:24;12.80;99.90
31133;DHT22;17779;50.942;4.026;2023-11-19T08:25:53;12.70;99.90
31133;DHT22;17779;50.942;4.026;2023-11-19T08:28:20;12.60;99.90
31133;DHT22;17779;50.942;4.026;2023-11-19T08:30:49;12.50;99.90
31133;DHT22;17779;50.942;4.026;2023-11-19T08:33:15;12.50;99.90
31133;DHT22;17779;50.942;4.026;2023-11-19T08:35:41;12.60;99.90
31133;DHT22;17779;50.942;4.026;2023-11-19T08:38:13;12.50;99.90
31133;DHT22;17779;50.942;4.026;2023-11-19T08:40:40;12.50;99.90
31133;DHT22;17779;50.942;4.026;2023-11-19T08:43:07;12.40;99.90
31133;DHT22;17779;50.942;4.026;2023-11-19T08:45:33;12.40;99.90
31133;DHT22;17779;50.942;4.026;2023-11-19T08:50:30;12.40;99.90
31133;DHT22;17779;50.942;4.026;2023-11-19T08:52:57;12.60;99.90
31133;DHT22;17779;50.942;4.026;2023-11-19T08:55:22;13.00;99.90
31133;DHT22;17779;50.942;4.026;2023-11-19T08:57:49;13.70;99.90
31133;DHT22;17779;50.942;4.026;2023-11-19T09:00:15;14.30;99.90
31133;DHT22;17779;50.942;4.026;2023-11-19T09:02:40;14.70;99.90
31133;DHT22;17779;50.942;4.026;2023-11-19T09:05:06;15.00;99.90
31133;DHT22;17779;50.942;4.026;2023-11-19T09:07:34;15.30;99.90
31133;DHT22;17779;50.942;4.026;2023-11-19T09:10:01;15.70;99.90
31133;DHT22;17779;50.942;4.026;2023-11-19T09:12:27;15.90;99.90
31133;DHT22;17779;50.942;4.026;2023-11-19T09:14:52;16.00;99.90
31133;DHT22;17779;50.942;4.026;2023-11-19T09:17:20;16.50;99.90
31133;DHT22;17779;50.942;4.026;2023-11-19T09:19:46;16.70;99.90
31133;DHT22;17779;50.942;4.026;2023-11-19T09:22:11;16.80;99.90
31133;DHT22;17779;50.942;4.026;2023-11-19T09:24:37;16.60;99.90
31133;DHT22;17779;50.942;4.026;2023-11-19T09:27:09;16.20;99.90
31133;DHT22;17779;50.942;4.026;2023-11-19T09:29:35;16.20;99.90
31133;DHT22;17779;50.942;4.026;2023-11-19T09:32:00;16.50;99.90
31133;DHT22;17779;50.942;4.026;2023-11-19T09:34:27;16.00;99.90
31133;DHT22;17779;50.942;4.026;2023-11-19T09:36:54;15.30;99.90
31133;DHT22;17779;50.942;4.026;2023-11-19T09:39:21;15.50;99.90
31133;DHT22;17779;50.942;4.026;2023-11-19T09:41:46;16.20;99.90
31133;DHT22;17779;50.942;4.026;2023-11-19T09:44:12;16.80;99.90
31133;DHT22;17779;50.942;4.026;2023-11-19T09:46:42;16.60;99.90
31133;DHT22;17779;50.942;4.026;2023-11-19T09:49:08;16.70;99.90
31133;DHT22;17779;50.942;4.026;2023-11-19T09:51:35;16.30;99.90
31133;DHT22;17779;50.942;4.026;2023-11-19T09:54:01;16.10;99.90
31133;DHT22;17779;50.942;4.026;2023-11-19T09:56:27;16.50;99.90
31133;DHT22;17779;50.942;4.026;2023-11-19T09:58:55;17.30;99.90
31133;DHT22;17779;50.942;4.026;2023-11-19T10:01:21;17.20;99.90
31133;DHT22;17779;50.942;4.026;2023-11-19T10:03:47;17.00;99.90
31133;DHT22;17779;50.942;4.026;2023-11-19T10:06:16;16.80;99.90
31133;DHT22;17779;50.942;4.026;2023-11-19T10:08:43;16.20;99.90
31133;DHT22;17779;50.942;4.026;2023-11-19T10:11:08;15.50;99.90
31133;DHT22;17779;50.942;4.026;2023-11-19T10:13:35;14.90;99.90
31133;DHT22;17779;50.942;4.026;2023-11-19T10:16:07;14.60;99.90
31133;DHT22;17779;50.942;4.026;2023-11-19T10:18:33;14.20;99.90
31133;DHT22;17779;50.942;4.026;2023-11-19T10:21:04;14.00;99.90
31133;DHT22;17779;50.942;4.026;2023-11-19T10:23:49;13.90;99.90
31133;DHT22;17779;50.942;4.026;2023-11-19T10:26:18;13.70;99.90
31133;DHT22;17779;50.942;4.026;2023-11-19T10:28:45;13.60;99.90
31133;DHT22;17779;50.942;4.026;2023-11-19T10:31:12;13.50;99.90
31133;DHT22;17779;50.942;4.026;2023-11-19T10:33:38;13.40;99.90
31133;DHT22;17779;50.942;4.026;2023-11-19T10:38:32;13.50;99.90
31133;DHT22;17779;50.942;4.026;2023-11-19T10:40:59;13.80;99.90
31133;DHT22;17779;50.942;4.026;2023-11-19T10:43:42;14.00;99.90
31133;DHT22;17779;50.942;4.026;2023-11-19T10:46:12;14.20;99.90
31133;DHT22;17779;50.942;4.026;2023-11-19T10:48:38;14.30;99.90
31133;DHT22;17779;50.942;4.026;2023-11-19T10:51:04;14.40;99.90
31133;DHT22;17779;50.942;4.026;2023-11-19T10:53:30;14.70;99.90
31133;DHT22;17779;50.942;4.026;2023-11-19T10:55:59;15.40;99.90
31133;DHT22;17779;50.942;4.026;2023-11-19T10:58:25;16.00;99.90
31133;DHT22;17779;50.942;4.026;2023-11-19T11:00:52;16.30;99.90
31133;DHT22;17779;50.942;4.026;2023-11-19T11:03:21;16.10;99.90
31133;DHT22;17779;50.942;4.026;2023-11-19T11:05:51;15.50;99.90
31133;DHT22;17779;50.942;4.026;2023-11-19T11:08:18;15.30;99.90
31133;DHT22;17779;50.942;4.026;2023-11-19T11:10:54;15.70;99.90
31133;DHT22;17779;50.942;4.026;2023-11-19T11:13:20;15.90;99.90
31133;DHT22;17779;50.942;4.026;2023-11-19T11:15:47;15.90;99.90
31133;DHT22;17779;50.942;4.026;2023-11-19T11:18:13;16.20;99.90
31133;DHT22;17779;50.942;4.026;2023-11-19T11:20:40;15.90;99.90
31133;DHT22;17779;50.942;4.026;2023-11-19T11:23:27;16.00;99.90
31133;DHT22;17779;50.942;4.026;2023-11-19T11:28:40;15.80;99.90
31133;DHT22;17779;50.942;4.026;2023-11-19T11:31:10;16.00;99.90
31133;DHT22;17779;50.942;4.026;2023-11-19T11:33:42;16.60;99.90
31133;DHT22;17779;50.942;4.026;2023-11-19T11:36:17;16.90;99.90
31133;DHT22;17779;50.942;4.026;2023-11-19T11:38:44;16.30;99.90
31133;DHT22;17779;50.942;4.026;2023-11-19T11:41:17;15.60;99.90
31133;DHT22;17779;50.942;4.026;2023-11-19T11:43:46;15.20;99.90
31133;DHT22;17779;50.942;4.026;2023-11-19T11:49:08;14.90;99.90
31133;DHT22;17779;50.942;4.026;2023-11-19T11:57:01;15.50;99.90
31133;DHT22;17779;50.942;4.026;2023-11-19T12:02:10;14.90;99.90
31133;DHT22;17779;50.942;4.026;2023-11-19T12:04:36;14.60;99.90
31133;DHT22;17779;50.942;4.026;2023-11-19T12:07:15;14.40;99.90
31133;DHT22;17779;50.942;4.026;2023-11-19T12:09:41;14.30;99.90
31133;DHT22;17779;50.942;4.026;2023-11-19T12:20:02;13.90;99.90
31133;DHT22;17779;50.942;4.026;2023-11-19T12:22:28;13.70;99.90
31133;DHT22;17779;50.942;4.026;2023-11-19T12:24:54;13.60;99.90
31133;DHT22;17779;50.942;4.026;2023-11-19T12:27:21;13.50;99.90
31133;DHT22;17779;50.942;4.026;2023-11-19T12:29:50;13.50;99.90
31133;DHT22;17779;50.942;4.026;2023-11-19T12:32:17;13.50;99.90
31133;DHT22;17779;50.942;4.026;2023-11-19T12:34:42;13.70;99.90
31133;DHT22;17779;50.942;4.026;2023-11-19T12:37:09;13.80;99.90
31133;DHT22;17779;50.942;4.026;2023-11-19T12:39:35;13.90;99.90
31133;DHT22;17779;50.942;4.026;2023-11-19T12:42:01;13.80;99.90
31133;DHT22;17779;50.942;4.026;2023-11-19T12:44:29;13.80;99.90
31133;DHT22;17779;50.942;4.026;2023-11-19T12:49:28;13.80;99.90
31133;DHT22;17779;50.942;4.026;2023-11-19T12:51:53;13.70;99.90
31133;DHT22;17779;50.942;4.026;2023-11-19T12:54:31;13.70;99.90
31133;DHT22;17779;50.942;4.026;2023-11-19T12:59:25;13.40;99.90
31133;DHT22;17779;50.942;4.026;2023-11-19T13:01:58;13.30;99.90
31133;DHT22;17779;50.942;4.026;2023-11-19T13:04:29;13.30;99.90
31133;DHT22;17779;50.942;4.026;2023-11-19T13:07:01;13.20;99.90
31133;DHT22;17779;50.942;4.026;2023-11-19T13:09:29;13.30;99.90
31133;DHT22;17779;50.942;4.026;2023-11-19T13:11:55;13.40;99.90
31133;DHT22;17779;50.942;4.026;2023-11-19T13:14:22;13.20;99.90
31133;DHT22;17779;50.942;4.026;2023-11-19T13:16:51;13.00;99.90
31133;DHT22;17779;50.942;4.026;2023-11-19T13:19:20;13.10;99.90
31133;DHT22;17779;50.942;4.026;2023-11-19T13:21:45;13.20;99.90
31133;DHT22;17779;50.942;4.026;2023-11-19T13:24:13;13.20;99.90
31133;DHT22;17779;50.942;4.026;2023-11-19T13:26:39;13.40;99.90
31133;DHT22;17779;50.942;4.026;2023-11-19T13:29:04;13.50;99.90
31133;DHT22;17779;50.942;4.026;2023-11-19T13:31:30;14.00;99.90
31133;DHT22;17779;50.942;4.026;2023-11-19T13:33:56;14.50;99.90
31133;DHT22;17779;50.942;4.026;2023-11-19T13:36:23;15.20;99.90
31133;DHT22;17779;50.942;4.026;2023-11-19T13:38:49;15.20;99.90
31133;DHT22;17779;50.942;4.026;2023-11-19T13:41:14;14.70;99.90
31133;DHT22;17779;50.942;4.026;2023-11-19T13:43:40;14.30;99.90
31133;DHT22;17779;50.942;4.026;2023-11-19T13:46:05;14.10;99.90
31133;DHT22;17779;50.942;4.026;2023-11-19T13:48:31;14.10;99.90
31133;DHT22;17779;50.942;4.026;2023-11-19T13:50:58;14.00;99.90
31133;DHT22;17779;50.942;4.026;2023-11-19T13:53:26;13.90;99.90
31133;DHT22;17779;50.942;4.026;2023-11-19T13:55:51;13.80;99.90
31133;DHT22;17779;50.942;4.026;2023-11-19T13:58:19;13.80;99.90
31133;DHT22;17779;50.942;4.026;2023-11-19T14:00:44;13.80;99.90
31133;DHT22;17779;50.942;4.026;2023-11-19T14:03:10;13.80;99.90
31133;DHT22;17779;50.942;4.026;2023-11-19T14:05:36;13.90;99.90
31133;DHT22;17779;50.942;4.026;2023-11-19T14:08:02;13.80;99.90
31133;DHT22;17779;50.942;4.026;2023-11-19T14:10:28;13.50;99.90
31133;DHT22;17779;50.942;4.026;2023-11-19T14:12:55;13.60;99.90
31133;DHT22;17779;50.942;4.026;2023-11-19T14:15:21;13.50;99.90
31133;DHT22;17779;50.942;4.026;2023-11-19T14:17:46;13.40;99.90
31133;DHT22;17779;50.942;4.026;2023-11-19T14:20:12;13.30;99.90
31133;DHT22;17779;50.942;4.026;2023-11-19T14:22:43;13.20;99.90
31133;DHT22;17779;50.942;4.026;2023-11-19T14:25:09;13.20;99.90
31133;DHT22;17779;50.942;4.026;2023-11-19T14:27:38;13.30;99.90
31133;DHT22;17779;50.942;4.026;2023-11-19T14:30:06;13.30;99.90
31133;DHT22;17779;50.942;4.026;2023-11-19T14:32:32;13.40;99.90
31133;DHT22;17779;50.942;4.026;2023-11-19T14:34:58;13.40;99.90
31133;DHT22;17779;50.942;4.026;2023-11-19T14:39:53;13.30;99.90
31133;DHT22;17779;50.942;4.026;2023-11-19T14:42:19;13.20;99.90
31133;DHT22;17779;50.942;4.026;2023-11-19T14:44:45;13.30;99.90
31133;DHT22;17779;50.942;4.026;2023-11-19T14:47:11;13.30;99.90
31133;DHT22;17779;50.942;4.026;2023-11-19T14:49:36;13.40;99.90
31133;DHT22;17779;50.942;4.026;2023-11-19T14:52:03;13.40;99.90
31133;DHT22;17779;50.942;4.026;2023-11-19T14:54:29;13.40;99.90
31133;DHT22;17779;50.942;4.026;2023-11-19T14:56:55;13.40;99.90
31133;DHT22;17779;50.942;4.026;2023-11-19T14:59:22;13.40;99.90
31133;DHT22;17779;50.942;4.026;2023-11-19T15:01:49;13.30;99.90
31133;DHT22;17779;50.942;4.026;2023-11-19T15:04:16;13.30;99.90
31133;DHT22;17779;50.942;4.026;2023-11-19T15:06:42;13.30;99.90
31133;DHT22;17779;50.942;4.026;2023-11-19T15:09:07;13.30;99.90
31133;DHT22;17779;50.942;4.026;2023-11-19T15:11:35;13.30;99.90
31133;DHT22;17779;50.942;4.026;2023-11-19T15:14:00;13.20;99.90
31133;DHT22;17779;50.942;4.026;2023-11-19T15:16:26;13.10;99.90
31133;DHT22;17779;50.942;4.026;2023-11-19T15:18:57;13.10;99.90
31133;DHT22;17779;50.942;4.026;2023-11-19T15:21:29;13.20;99.90
31133;DHT22;17779;50.942;4.026;2023-11-19T15:23:55;13.10;99.90
31133;DHT22;17779;50.942;4.026;2023-11-19T15:26:23;13.10;99.90
31133;DHT22;17779;50.942;4.026;2023-11-19T15:28:49;13.20;99.90
31133;DHT22;17779;50.942;4.026;2023-11-19T15:31:14;13.20;99.90
31133;DHT22;17779;50.942;4.026;2023-11-19T15:33:42;13.10;99.90
31133;DHT22;17779;50.942;4.026;2023-11-19T15:36:09;13.10;99.90
31133;DHT22;17779;50.942;4.026;2023-11-19T15:38:34;13.10;99.90
31133;DHT22;17779;50.942;4.026;2023-11-19T15:41:00;13.10;99.90
31133;DHT22;17779;50.942;4.026;2023-11-19T15:43:27;13.00;99.90
31133;DHT22;17779;50.942;4.026;2023-11-19T15:45:53;12.90;99.90
31133;DHT22;17779;50.942;4.026;2023-11-19T15:48:20;12.90;99.90
31133;DHT22;17779;50.942;4.026;2023-11-19T15:50:46;12.70;99.90
31133;DHT22;17779;50.942;4.026;2023-11-19T15:53:13;12.50;99.90
31133;DHT22;17779;50.942;4.026;2023-11-19T15:55:39;12.50;99.90
31133;DHT22;17779;50.942;4.026;2023-11-19T15:58:06;12.50;99.90
31133;DHT22;17779;50.942;4.026;2023-11-19T16:00:31;12.50;99.90
31133;DHT22;17779;50.942;4.026;2023-11-19T16:02:57;12.50;99.90
31133;DHT22;17779;50.942;4.026;2023-11-19T16:05:24;12.30;99.90
31133;DHT22;17779;50.942;4.026;2023-11-19T16:07:50;12.20;99.90
31133;DHT22;17779;50.942;4.026;2023-11-19T16:10:16;12.10;99.90
31133;DHT22;17779;50.942;4.026;2023-11-19T16:12:45;12.00;99.90
31133;DHT22;17779;50.942;4.026;2023-11-19T16:15:13;12.00;99.90
31133;DHT22;17779;50.942;4.026;2023-11-19T16:17:42;12.00;99.90
31133;DHT22;17779;50.942;4.026;2023-11-19T16:20:08;12.00;99.90
31133;DHT22;17779;50.942;4.026;2023-11-19T16:22:39;12.00;99.90
31133;DHT22;17779;50.942;4.026;2023-11-19T16:25:06;12.10;99.90
31133;DHT22;17779;50.942;4.026;2023-11-19T16:27:32;12.10;99.90
31133;DHT22;17779;50.942;4.026;2023-11-19T16:29:58;12.10;99.90
31133;DHT22;17779;50.942;4.026;2023-11-19T16:32:26;12.20;99.90
31133;DHT22;17779;50.942;4.026;2023-11-19T16:34:51;12.20;99.90
31133;DHT22;17779;50.942;4.026;2023-11-19T16:37:18;12.20;99.90
31133;DHT22;17779;50.942;4.026;2023-11-19T16:39:43;12.30;99.90